createdAt,value
2023-01-09T00:02:07.196Z,23.67
2023-01-09T00:04:37.794Z,21.55
2023-01-09T00:07:07.945Z,22.98
2023-01-09T00:09:38.210Z,25.20
2023-01-09T00:12:11.221Z,24.20
2023-01-09T00:14:41.395Z,23.80
2023-01-09T00:17:11.646Z,24.85
2023-01-09T00:19:42.071Z,23.60
2023-01-09T00:22:12.461Z,26.83
2023-01-09T00:24:42.688Z,23.98
2023-01-09T00:27:15.496Z,21.75
2023-01-09T00:29:46.228Z,27.73
2023-01-09T00:32:16.455Z,27.23
2023-01-09T00:34:46.672Z,27.23
2023-01-09T00:37:16.995Z,22.30
2023-01-09T00:39:49.779Z,27.00
2023-01-09T00:42:25.428Z,26.40
2023-01-09T00:44:58.870Z,23.52
2023-01-09T00:47:34.024Z,22.13
2023-01-09T00:50:07.763Z,24.02
2023-01-09T00:52:42.899Z,25.65
2023-01-09T00:55:13.505Z,25.17
2023-01-09T00:57:46.871Z,24.08
2023-01-09T01:00:17.827Z,24.95
2023-01-09T01:02:48.189Z,22.88
2023-01-09T01:05:31.027Z,20.73
2023-01-09T01:08:02.211Z,23.85
2023-01-09T01:10:32.474Z,23.42
2023-01-09T01:13:05.333Z,22.10
2023-01-09T01:15:35.586Z,25.30
2023-01-09T01:18:06.312Z,26.65
2023-01-09T01:20:36.551Z,22.30
2023-01-09T01:23:06.711Z,23.25
2023-01-09T01:25:39.338Z,22.63
2023-01-09T01:28:13.227Z,23.75
2023-01-09T01:30:45.248Z,22.40
2023-01-09T01:33:15.428Z,23.98
2023-01-09T01:35:45.602Z,20.08
2023-01-09T01:38:15.792Z,19.95
2023-01-09T01:40:46.029Z,19.23
2023-01-09T01:43:18.851Z,19.25
2023-01-09T01:45:49.011Z,19.35
2023-01-09T01:48:23.898Z,20.58
2023-01-09T01:51:01.290Z,20.30
2023-01-09T01:53:36.001Z,18.20
2023-01-09T01:56:12.403Z,16.92
2023-01-09T01:58:50.200Z,16.83
2023-01-09T02:01:21.798Z,17.30
2023-01-09T02:03:53.600Z,16.67
2023-01-09T02:06:23.859Z,16.83
2023-01-09T02:08:54.457Z,21.42
2023-01-09T02:11:24.696Z,19.98
2023-01-09T02:13:57.774Z,16.58
2023-01-09T02:16:40.157Z,16.20
2023-01-09T02:19:29.166Z,16.33
2023-01-09T02:22:13.785Z,18.35
2023-01-09T02:25:03.130Z,18.08
2023-01-09T02:28:02.704Z,17.83
2023-01-09T02:30:47.518Z,19.25
2023-01-09T02:33:42.278Z,17.08
2023-01-09T02:36:20.002Z,17.20
2023-01-09T02:39:01.631Z,17.42
2023-01-09T02:41:39.160Z,18.58
2023-01-09T02:44:19.070Z,18.38
2023-01-09T02:47:02.797Z,20.10
2023-01-09T02:49:33.870Z,18.15
2023-01-09T02:52:17.172Z,20.30
2023-01-09T02:54:57.537Z,18.23
2023-01-09T02:57:49.239Z,20.10
2023-01-09T03:00:37.539Z,16.08
2023-01-09T03:03:15.820Z,21.77
2023-01-09T03:05:50.209Z,17.10
2023-01-09T03:08:24.658Z,18.38
2023-01-09T03:10:58.997Z,18.05
2023-01-09T03:13:34.121Z,16.52
2023-01-09T03:16:08.968Z,18.25
2023-01-09T03:18:42.922Z,18.33
2023-01-09T03:21:14.721Z,17.45
2023-01-09T03:23:53.211Z,15.93
2023-01-09T03:26:23.746Z,16.65
2023-01-09T03:28:54.693Z,17.98
2023-01-09T03:31:25.396Z,16.48
2023-01-09T03:33:58.302Z,18.65
2023-01-09T03:36:28.586Z,16.42
2023-01-09T03:38:58.801Z,20.90
2023-01-09T03:41:29.063Z,20.50
2023-01-09T03:43:59.222Z,19.00
2023-01-09T03:46:29.374Z,17.73
2023-01-09T03:49:02.518Z,18.83
2023-01-09T03:51:32.648Z,16.65
2023-01-09T03:54:02.854Z,18.77
2023-01-09T03:56:33.132Z,17.98
2023-01-09T03:59:07.007Z,18.92
2023-01-09T04:01:37.367Z,19.42
2023-01-09T04:04:10.408Z,19.83
2023-01-09T04:06:40.694Z,21.02
2023-01-09T04:09:11.023Z,19.33
2023-01-09T04:11:41.426Z,15.80
2023-01-09T04:14:14.309Z,18.52
2023-01-09T04:16:44.564Z,18.70
2023-01-09T04:19:17.461Z,18.38
2023-01-09T04:21:47.649Z,16.73
2023-01-09T04:24:17.782Z,15.73
2023-01-09T04:26:47.982Z,18.60
2023-01-09T04:29:18.181Z,20.95
2023-01-09T04:31:48.508Z,18.45
2023-01-09T04:34:25.568Z,18.67
2023-01-09T04:36:56.317Z,16.15
2023-01-09T04:39:26.544Z,19.95
2023-01-09T04:41:56.787Z,18.15
2023-01-09T04:44:28.650Z,19.27
2023-01-09T04:47:00.412Z,17.60
2023-01-09T04:49:33.310Z,18.00
2023-01-09T04:52:03.831Z,16.60
2023-01-09T04:54:35.176Z,20.80
2023-01-09T04:57:05.368Z,17.70
2023-01-09T04:59:35.545Z,17.70
2023-01-09T05:02:06.283Z,18.02
2023-01-09T05:04:39.252Z,14.43
2023-01-09T05:07:09.638Z,16.45
2023-01-09T05:09:39.803Z,16.40
2023-01-09T05:12:10.384Z,15.90
2023-01-09T05:14:40.541Z,15.82
2023-01-09T05:17:13.327Z,17.23
2023-01-09T05:19:46.324Z,15.48
2023-01-09T05:22:16.708Z,15.70
2023-01-09T05:24:46.859Z,15.63
2023-01-09T05:27:17.066Z,17.60
2023-01-09T05:29:47.259Z,16.23
2023-01-09T05:32:17.434Z,15.23
2023-01-09T05:34:50.225Z,16.20
2023-01-09T05:37:20.498Z,17.38
2023-01-09T05:39:50.685Z,17.98
2023-01-09T05:42:20.851Z,15.70
2023-01-09T05:44:51.010Z,19.20
2023-01-09T05:47:21.231Z,17.92
2023-01-09T05:49:56.421Z,15.45
2023-01-09T05:52:26.905Z,15.50
2023-01-09T05:54:57.065Z,18.50
2023-01-09T05:57:28.928Z,16.20
2023-01-09T05:59:59.198Z,14.02
2023-01-09T06:02:29.437Z,18.20
2023-01-09T06:05:02.311Z,18.08
2023-01-09T06:07:34.989Z,16.88
2023-01-09T06:10:05.170Z,15.32
2023-01-09T06:12:35.549Z,18.35
2023-01-09T06:15:08.689Z,14.98
2023-01-09T06:17:39.320Z,17.02
2023-01-09T06:20:13.956Z,15.88
2023-01-09T06:22:44.934Z,16.50
2023-01-09T06:25:16.355Z,15.60
2023-01-09T06:27:46.659Z,19.13
2023-01-09T06:30:17.165Z,17.63
2023-01-09T06:32:47.636Z,19.77
2023-01-09T06:35:22.495Z,18.85
2023-01-09T06:37:53.110Z,17.23
2023-01-09T06:40:23.704Z,17.33
2023-01-09T06:42:53.964Z,19.17
2023-01-09T06:45:24.120Z,18.05
2023-01-09T06:47:54.617Z,16.40
2023-01-09T06:50:27.665Z,18.52
2023-01-09T06:52:57.909Z,16.90
2023-01-09T06:55:29.227Z,18.17
2023-01-09T06:57:59.440Z,17.30
2023-01-09T07:00:31.564Z,16.75
2023-01-09T07:03:01.810Z,18.08
2023-01-09T07:05:37.840Z,18.27
2023-01-09T07:08:08.222Z,18.50
2023-01-09T07:10:41.789Z,18.67
2023-01-09T07:13:12.076Z,20.25
2023-01-09T07:15:42.461Z,18.42
2023-01-09T07:18:12.838Z,17.67
2023-01-09T07:20:45.738Z,14.65
2023-01-09T07:23:16.411Z,17.98
2023-01-09T07:25:46.607Z,14.20
2023-01-09T07:28:16.748Z,15.98
2023-01-09T07:30:46.993Z,17.08
2023-01-09T07:33:17.200Z,16.83
2023-01-09T07:35:49.959Z,18.73
2023-01-09T07:38:20.864Z,17.55
2023-01-09T07:40:51.159Z,17.35
2023-01-09T07:43:21.387Z,16.23
2023-01-09T07:45:51.504Z,19.83
2023-01-09T07:48:21.754Z,16.50
2023-01-09T07:50:54.604Z,16.02
2023-01-09T07:53:24.769Z,15.55
2023-01-09T07:55:55.013Z,17.50
2023-01-09T07:58:25.256Z,18.42
2023-01-09T08:00:55.548Z,18.50
2023-01-09T08:03:26.981Z,15.05
2023-01-09T08:05:59.745Z,14.95
2023-01-09T08:08:29.919Z,17.15
2023-01-09T08:11:00.151Z,19.15
2023-01-09T08:13:30.334Z,21.92
2023-01-09T08:16:00.558Z,17.70
2023-01-09T08:18:30.853Z,14.77
2023-01-09T08:21:03.747Z,19.33
2023-01-09T08:23:34.031Z,15.88
2023-01-09T08:26:04.326Z,18.10
2023-01-09T08:28:35.011Z,17.95
2023-01-09T08:31:05.545Z,20.73
2023-01-09T08:33:35.708Z,17.55
2023-01-09T08:36:09.294Z,17.85
2023-01-09T08:38:39.531Z,20.40
2023-01-09T08:41:22.065Z,19.88
2023-01-09T08:44:07.438Z,20.75
2023-01-09T08:46:50.220Z,18.55
2023-01-09T08:49:20.884Z,19.10
2023-01-09T08:51:54.193Z,18.02
2023-01-09T08:54:24.368Z,18.63
2023-01-09T08:56:54.669Z,22.95
2023-01-09T08:59:25.459Z,19.00
2023-01-09T09:01:56.715Z,17.98
2023-01-09T09:04:27.055Z,21.67
2023-01-09T09:06:59.913Z,16.13
2023-01-09T09:09:30.464Z,14.32
2023-01-09T09:12:00.980Z,15.38
2023-01-09T09:14:43.991Z,18.95
2023-01-09T09:17:14.122Z,14.88
2023-01-09T09:19:44.498Z,14.90
2023-01-09T09:22:17.300Z,15.90
2023-01-09T09:24:47.437Z,15.52
2023-01-09T09:27:17.637Z,16.38
2023-01-09T09:29:48.121Z,19.30
2023-01-09T09:32:19.177Z,18.83
2023-01-09T09:34:49.368Z,19.52
2023-01-09T09:37:22.239Z,18.83
2023-01-09T09:39:53.101Z,14.85
2023-01-09T09:43:07.759Z,18.17
2023-01-09T09:45:48.986Z,17.20
2023-01-09T09:48:33.863Z,20.88
2023-01-09T09:51:18.543Z,15.98
2023-01-09T09:54:01.339Z,14.65
2023-01-09T09:56:36.331Z,15.57
2023-01-09T09:59:11.181Z,16.45
2023-01-09T10:01:45.695Z,13.63
2023-01-09T10:04:19.550Z,16.38
2023-01-09T10:06:54.323Z,17.90
2023-01-09T10:09:43.604Z,17.13
2023-01-09T10:12:28.045Z,17.48
2023-01-09T10:15:00.379Z,17.73
2023-01-09T10:17:50.492Z,15.40
2023-01-09T10:20:51.786Z,16.05
2023-01-09T10:23:39.348Z,16.95
2023-01-09T10:26:19.699Z,19.52
2023-01-09T10:29:14.521Z,14.52
2023-01-09T10:31:56.907Z,17.58
2023-01-09T10:34:42.260Z,15.88
2023-01-09T10:37:17.131Z,17.58
2023-01-09T10:39:52.592Z,16.98
2023-01-09T10:42:33.607Z,16.30
2023-01-09T10:45:08.390Z,17.58
2023-01-09T10:47:43.326Z,17.98
2023-01-09T10:50:22.692Z,18.08
2023-01-09T10:52:54.663Z,17.20
2023-01-09T10:55:33.833Z,17.33
2023-01-09T10:58:14.915Z,13.27
2023-01-09T11:00:48.525Z,18.15
2023-01-09T11:03:21.283Z,19.30
2023-01-09T11:05:54.095Z,19.50
2023-01-09T11:08:29.935Z,19.13
2023-01-09T11:11:01.855Z,18.65
2023-01-09T11:13:37.123Z,16.70
2023-01-09T11:16:10.436Z,16.35
2023-01-09T11:18:43.850Z,16.20
2023-01-09T11:21:32.332Z,16.33
2023-01-09T11:24:32.872Z,15.73
2023-01-09T11:27:23.828Z,17.77
2023-01-09T11:30:20.152Z,16.33
2023-01-09T11:32:51.315Z,17.92
2023-01-09T11:35:27.201Z,19.38
2023-01-09T11:38:05.253Z,13.63
2023-01-09T11:40:46.984Z,17.60
2023-01-09T11:43:21.096Z,16.65
2023-01-09T11:48:35.942Z,14.77
2023-01-09T11:51:09.712Z,19.17
2023-01-09T11:54:03.706Z,17.42
2023-01-09T11:56:34.000Z,18.67
2023-01-09T11:59:13.608Z,15.88
2023-01-09T12:02:19.346Z,17.48
2023-01-09T12:04:57.145Z,16.98
2023-01-09T12:07:53.137Z,18.55
2023-01-09T12:10:40.723Z,16.75
2023-01-09T12:13:25.411Z,19.13
2023-01-09T12:16:07.554Z,19.98
2023-01-09T12:18:55.047Z,18.35
2023-01-09T12:21:36.139Z,18.45
2023-01-09T12:24:42.634Z,18.88
2023-01-09T12:27:27.975Z,20.40
2023-01-09T12:30:30.102Z,16.42
2023-01-09T12:33:16.549Z,18.58
2023-01-09T12:35:57.488Z,19.65
2023-01-09T12:38:42.531Z,17.75
2023-01-09T12:41:42.703Z,18.38
2023-01-09T12:44:36.034Z,23.35
2023-01-09T12:47:27.128Z,18.20
2023-01-09T12:50:10.060Z,19.10
2023-01-09T12:52:49.076Z,19.08
2023-01-09T12:55:23.368Z,19.55
2023-01-09T12:57:56.214Z,20.98
2023-01-09T13:00:30.656Z,20.63
2023-01-09T13:03:13.476Z,20.27
2023-01-09T13:05:48.563Z,23.65
2023-01-09T13:08:27.352Z,23.10
2023-01-09T13:11:19.935Z,24.45
2023-01-09T13:13:58.920Z,20.08
2023-01-09T13:16:34.453Z,22.67
2023-01-09T13:19:10.621Z,24.70
2023-01-09T13:21:41.993Z,21.02
2023-01-09T13:24:23.648Z,23.95
2023-01-09T13:26:59.339Z,22.98
2023-01-09T13:29:33.417Z,22.73
2023-01-09T13:32:36.274Z,20.27
2023-01-09T13:35:07.584Z,25.50
2023-01-09T13:37:39.896Z,18.92
2023-01-09T13:40:33.145Z,24.27
2023-01-09T13:43:06.651Z,23.27
2023-01-09T13:45:38.594Z,25.10
2023-01-09T13:48:29.458Z,23.70
2023-01-09T13:51:40.996Z,22.02
2023-01-09T13:54:12.722Z,21.58
2023-01-09T13:57:12.793Z,24.40
2023-01-09T13:59:45.996Z,23.80
2023-01-09T14:02:49.965Z,22.08
2023-01-09T14:05:55.243Z,20.17
2023-01-09T14:08:27.060Z,24.15
2023-01-09T14:11:01.045Z,21.60
2023-01-09T14:13:34.470Z,23.63
2023-01-09T14:16:10.381Z,23.60
2023-01-09T14:18:48.241Z,24.13
2023-01-09T14:21:19.210Z,24.63
2023-01-09T14:24:02.164Z,27.00
2023-01-09T14:26:46.382Z,24.63
2023-01-09T14:29:43.996Z,24.27
2023-01-09T14:32:58.064Z,21.10
2023-01-09T14:35:37.538Z,21.58
2023-01-09T14:38:26.428Z,20.25
2023-01-09T14:41:03.954Z,22.63
2023-01-09T14:43:57.310Z,24.30
2023-01-09T14:46:28.512Z,20.38
2023-01-09T14:49:10.107Z,21.77
2023-01-09T14:51:45.652Z,20.85
2023-01-09T14:54:30.493Z,25.35
2023-01-09T14:57:01.310Z,23.50
2023-01-09T14:59:32.017Z,23.35
2023-01-09T15:02:05.367Z,23.30
2023-01-09T15:04:43.674Z,21.05
2023-01-09T15:07:23.278Z,23.02
2023-01-09T15:09:54.216Z,23.85
2023-01-09T15:12:26.824Z,22.35
2023-01-09T15:15:00.699Z,21.45
2023-01-09T15:17:39.505Z,22.20
2023-01-09T15:20:21.392Z,25.20
2023-01-09T15:22:54.648Z,24.10
2023-01-09T15:25:45.141Z,25.15
2023-01-09T15:28:32.427Z,28.00
2023-01-09T15:31:09.763Z,28.58
2023-01-09T15:33:43.090Z,28.40
2023-01-09T15:36:21.259Z,30.30
2023-01-09T15:38:53.401Z,21.58
2023-01-09T15:41:41.157Z,24.30
2023-01-09T15:44:19.227Z,26.70
2023-01-09T15:46:50.302Z,26.73
2023-01-09T15:49:22.083Z,27.27
2023-01-09T15:51:55.949Z,24.17
2023-01-09T15:54:31.928Z,28.77
2023-01-09T15:57:35.648Z,24.85
2023-01-09T16:00:42.306Z,25.80
2023-01-09T16:03:22.139Z,24.50
2023-01-09T16:05:56.320Z,21.95
2023-01-09T16:11:07.155Z,27.85
2023-01-09T16:13:46.401Z,23.33
2023-01-09T16:16:26.005Z,27.27
2023-01-09T16:18:58.069Z,24.40
2023-01-09T16:21:35.518Z,26.42
2023-01-09T16:24:28.294Z,25.67
2023-01-09T16:27:16.514Z,26.10
2023-01-09T16:29:50.090Z,24.38
2023-01-09T16:32:23.210Z,22.08
2023-01-09T16:34:58.290Z,22.92
2023-01-09T16:37:29.671Z,27.05
2023-01-09T16:40:25.362Z,26.98
2023-01-09T16:43:02.074Z,29.83
2023-01-09T16:45:35.023Z,27.75
2023-01-09T16:48:06.624Z,28.80
2023-01-09T16:50:36.876Z,25.35
2023-01-09T16:53:16.434Z,23.27
2023-01-09T16:55:49.639Z,27.65
2023-01-09T16:58:24.754Z,22.40
2023-01-09T17:00:55.219Z,22.85
2023-01-09T17:03:25.776Z,24.60
2023-01-09T17:05:58.226Z,26.63
2023-01-09T17:08:31.479Z,25.63
2023-01-09T17:11:05.224Z,27.83
2023-01-09T17:13:35.415Z,24.00
2023-01-09T17:16:07.372Z,25.55
2023-01-09T17:18:38.370Z,22.00
2023-01-09T17:21:11.654Z,19.45
2023-01-09T17:23:41.918Z,21.77
2023-01-09T17:26:34.723Z,20.80
2023-01-09T17:29:05.859Z,22.90
2023-01-09T17:31:38.587Z,22.02
2023-01-09T17:34:08.920Z,19.45
2023-01-09T17:36:39.188Z,20.75
2023-01-09T17:39:09.417Z,20.45
2023-01-09T17:41:42.263Z,23.70
2023-01-09T17:44:13.289Z,22.70
2023-01-09T17:46:45.918Z,19.90
2023-01-09T17:49:19.783Z,18.88
2023-01-09T17:51:49.992Z,22.63
2023-01-09T17:54:21.299Z,20.02
2023-01-09T17:56:54.528Z,20.85
2023-01-09T17:59:26.368Z,21.27
2023-01-09T18:01:57.824Z,22.58
2023-01-09T18:04:28.244Z,21.65
2023-01-09T18:06:58.677Z,18.50
2023-01-09T18:09:28.904Z,21.20
2023-01-09T18:12:02.708Z,22.67
2023-01-09T18:14:32.903Z,21.40
2023-01-09T18:17:03.367Z,18.58
2023-01-09T18:19:33.719Z,30.70
2023-01-09T18:22:04.054Z,30.60
2023-01-09T18:24:34.232Z,33.95
2023-01-09T18:27:07.267Z,34.70
2023-01-09T18:29:37.751Z,24.30
2023-01-09T18:32:08.715Z,23.55
2023-01-09T18:34:39.109Z,15.45
2023-01-09T18:37:10.993Z,18.27
2023-01-09T18:39:41.227Z,20.67
2023-01-09T18:42:14.503Z,18.27
2023-01-09T18:44:44.821Z,15.38
2023-01-09T18:47:17.347Z,15.45
2023-01-09T18:49:47.576Z,16.33
2023-01-09T18:52:18.049Z,17.23
2023-01-09T18:54:48.680Z,15.57
2023-01-09T18:57:21.557Z,19.70
2023-01-09T18:59:52.210Z,17.30
2023-01-09T19:02:30.958Z,14.75
2023-01-09T19:05:03.656Z,16.58
2023-01-09T19:07:34.776Z,16.80
2023-01-09T19:10:05.197Z,17.02
2023-01-09T19:12:40.501Z,17.20
2023-01-09T19:15:11.915Z,20.40
2023-01-09T19:17:42.551Z,17.50
2023-01-09T19:20:14.793Z,18.50
2023-01-09T19:22:45.028Z,20.00
2023-01-09T19:25:15.351Z,18.90
2023-01-09T19:27:48.327Z,19.52
2023-01-09T19:30:19.527Z,17.45
2023-01-09T19:32:50.116Z,17.60
2023-01-09T19:35:20.443Z,18.92
2023-01-09T19:37:51.296Z,17.38
2023-01-09T19:40:21.899Z,16.50
2023-01-09T19:42:56.029Z,18.13
2023-01-09T19:45:29.076Z,15.90
2023-01-09T19:48:00.127Z,12.03
2023-01-09T19:50:30.343Z,16.27
2023-01-09T19:53:00.780Z,14.18
2023-01-09T19:55:31.336Z,15.70
2023-01-09T19:58:04.250Z,16.35
2023-01-09T20:00:35.451Z,15.35
2023-01-09T20:03:05.696Z,14.73
2023-01-09T20:05:36.219Z,16.75
2023-01-09T20:08:08.706Z,15.60
2023-01-09T20:10:40.953Z,15.18
2023-01-09T20:13:13.860Z,18.15
2023-01-09T20:15:44.703Z,16.45
2023-01-09T20:18:15.145Z,13.82
2023-01-09T20:20:52.431Z,12.80
2023-01-09T20:23:22.756Z,17.65
2023-01-09T20:25:53.678Z,14.90
2023-01-09T20:28:26.918Z,17.02
2023-01-09T20:30:57.476Z,14.95
2023-01-09T20:33:30.583Z,13.70
2023-01-09T20:36:03.581Z,14.32
2023-01-09T20:38:33.973Z,13.70
2023-01-09T20:41:11.292Z,16.77
2023-01-09T20:43:44.127Z,14.40
2023-01-09T20:46:17.177Z,4.78
2023-01-09T20:48:52.176Z,14.32
2023-01-09T20:51:22.846Z,9.93
2023-01-09T20:53:55.920Z,11.75
2023-01-09T20:56:27.392Z,12.32
2023-01-09T20:59:01.483Z,12.88
2023-01-09T21:01:31.942Z,13.82
2023-01-09T21:04:03.240Z,9.70
2023-01-09T21:06:33.490Z,8.25
2023-01-09T21:09:04.216Z,10.95
2023-01-09T21:11:34.625Z,11.30
2023-01-09T21:14:07.485Z,12.65
2023-01-09T21:16:37.806Z,10.95
2023-01-09T21:19:08.040Z,7.57
2023-01-09T21:21:38.279Z,10.95
2023-01-09T21:24:09.393Z,11.45
2023-01-09T21:26:39.647Z,13.10
2023-01-09T21:29:16.057Z,11.70
2023-01-09T21:31:46.403Z,13.55
2023-01-09T21:34:20.719Z,13.70
2023-01-09T21:36:51.490Z,11.90
2023-01-09T21:39:24.239Z,14.43
2023-01-09T21:42:06.964Z,12.23
2023-01-09T21:44:52.109Z,13.27
2023-01-09T21:47:22.968Z,13.52
2023-01-09T21:49:53.231Z,12.75
2023-01-09T21:52:23.656Z,12.00
2023-01-09T21:54:53.878Z,14.80
2023-01-09T21:57:24.266Z,13.50
2023-01-09T21:59:57.384Z,13.40
2023-01-09T22:02:27.602Z,14.77
2023-01-09T22:05:00.357Z,12.65
2023-01-09T22:07:30.517Z,13.50
2023-01-09T22:10:00.914Z,11.52
2023-01-09T22:12:31.136Z,10.82
2023-01-09T22:15:04.032Z,12.88
2023-01-09T22:17:34.335Z,13.77
2023-01-09T22:20:04.555Z,12.52
2023-01-09T22:22:34.796Z,12.10
2023-01-09T22:25:05.978Z,12.70
2023-01-09T22:27:36.693Z,11.07
2023-01-09T22:30:10.918Z,11.25
2023-01-09T22:32:41.143Z,9.35
2023-01-09T22:35:12.635Z,11.35
2023-01-09T22:37:42.907Z,10.05
2023-01-09T22:40:14.827Z,12.07
2023-01-09T22:42:44.997Z,9.32
2023-01-09T22:45:17.958Z,11.57
2023-01-09T22:47:48.166Z,10.75
2023-01-09T22:50:20.831Z,12.80
2023-01-09T22:52:51.652Z,10.88
2023-01-09T22:55:21.914Z,10.00
2023-01-09T22:57:52.175Z,12.60
2023-01-09T23:00:25.170Z,11.23
2023-01-09T23:02:55.482Z,14.50
2023-01-09T23:05:25.633Z,11.68
2023-01-09T23:07:55.914Z,10.63
2023-01-09T23:10:26.087Z,14.20
2023-01-09T23:12:56.363Z,11.80
2023-01-09T23:15:29.174Z,11.43
2023-01-09T23:18:01.508Z,8.80
2023-01-09T23:20:31.831Z,8.20
2023-01-09T23:23:02.291Z,10.70
2023-01-09T23:25:32.444Z,9.82
2023-01-09T23:28:02.903Z,10.52
2023-01-09T23:30:35.669Z,9.27
2023-01-09T23:33:05.887Z,11.30
2023-01-09T23:35:36.026Z,8.05
2023-01-09T23:38:06.688Z,7.25
2023-01-09T23:40:39.049Z,11.10
2023-01-09T23:43:09.312Z,9.73
2023-01-09T23:45:44.106Z,11.50
2023-01-09T23:48:17.544Z,10.13
2023-01-09T23:50:51.901Z,10.60
2023-01-09T23:53:24.547Z,10.10
2023-01-09T23:55:57.176Z,10.55
2023-01-09T23:58:28.108Z,10.98
